sensor_id;sensor_type;location;lat;lon;timestamp;temperature;humidity
11399;DHT22;5755;48.116;11.608;2023-03-12T00:01:18;1.50;69.80
11399;DHT22;5755;48.116;11.608;2023-03-12T00:03:46;1.30;71.50
11399;DHT22;5755;48.116;11.608;2023-03-12T00:06:13;1.20;71.90
11399;DHT22;5755;48.116;11.608;2023-03-12T00:08:40;1.10;71.30
11399;DHT22;5755;48.116;11.608;2023-03-12T00:11:10;1.10;72.30
11399;DHT22;5755;48.116;11.608;2023-03-12T00:13:38;1.20;73.70
11399;DHT22;5755;48.116;11.608;2023-03-12T00:16:07;1.30;73.60
11399;DHT22;5755;48.116;11.608;2023-03-12T00:18:36;1.30;71.70
11399;DHT22;5755;48.116;11.608;2023-03-12T00:21:12;1.20;72.70
11399;DHT22;5755;48.116;11.608;2023-03-12T00:23:47;1.10;75.00
11399;DHT22;5755;48.116;11.608;2023-03-12T00:26:16;1.10;75.00
11399;DHT22;5755;48.116;11.608;2023-03-12T00:28:43;1.10;74.40
11399;DHT22;5755;48.116;11.608;2023-03-12T00:31:22;1.10;75.00
11399;DHT22;5755;48.116;11.608;2023-03-12T00:33:52;1.10;75.30
11399;DHT22;5755;48.116;11.608;2023-03-12T00:36:21;1.30;75.40
11399;DHT22;5755;48.116;11.608;2023-03-12T00:38:49;1.40;74.80
11399;DHT22;5755;48.116;11.608;2023-03-12T00:41:16;1.40;72.50
11399;DHT22;5755;48.116;11.608;2023-03-12T00:43:44;1.40;71.60
11399;DHT22;5755;48.116;11.608;2023-03-12T00:46:11;1.40;71.80
11399;DHT22;5755;48.116;11.608;2023-03-12T00:48:39;1.20;72.40
11399;DHT22;5755;48.116;11.608;2023-03-12T00:51:07;1.20;72.80
11399;DHT22;5755;48.116;11.608;2023-03-12T00:53:35;1.20;74.10
11399;DHT22;5755;48.116;11.608;2023-03-12T00:56:02;1.10;74.00
11399;DHT22;5755;48.116;11.608;2023-03-12T00:58:30;1.00;74.30
11399;DHT22;5755;48.116;11.608;2023-03-12T01:00:57;0.90;75.30
11399;DHT22;5755;48.116;11.608;2023-03-12T01:03:24;1.00;75.90
11399;DHT22;5755;48.116;11.608;2023-03-12T01:05:51;0.90;76.00
11399;DHT22;5755;48.116;11.608;2023-03-12T01:08:22;0.80;76.20
11399;DHT22;5755;48.116;11.608;2023-03-12T01:10:50;0.70;76.20
11399;DHT22;5755;48.116;11.608;2023-03-12T01:13:17;0.70;77.60
11399;DHT22;5755;48.116;11.608;2023-03-12T01:15:44;0.60;77.80
11399;DHT22;5755;48.116;11.608;2023-03-12T01:18:11;0.70;81.00
11399;DHT22;5755;48.116;11.608;2023-03-12T01:20:38;0.70;82.00
11399;DHT22;5755;48.116;11.608;2023-03-12T01:23:06;0.80;80.20
11399;DHT22;5755;48.116;11.608;2023-03-12T01:25:34;0.90;78.70
11399;DHT22;5755;48.116;11.608;2023-03-12T01:28:01;0.80;79.10
11399;DHT22;5755;48.116;11.608;2023-03-12T01:30:30;0.70;79.20
11399;DHT22;5755;48.116;11.608;2023-03-12T01:32:57;0.60;81.00
11399;DHT22;5755;48.116;11.608;2023-03-12T01:35:24;0.90;80.60
11399;DHT22;5755;48.116;11.608;2023-03-12T01:37:51;1.10;79.70
11399;DHT22;5755;48.116;11.608;2023-03-12T01:40:21;1.20;79.80
11399;DHT22;5755;48.116;11.608;2023-03-12T01:42:55;1.20;81.20
11399;DHT22;5755;48.116;11.608;2023-03-12T01:46:01;1.20;80.80
11399;DHT22;5755;48.116;11.608;2023-03-12T01:48:31;1.30;78.30
11399;DHT22;5755;48.116;11.608;2023-03-12T01:51:01;1.40;79.40
11399;DHT22;5755;48.116;11.608;2023-03-12T01:53:29;1.70;77.30
11399;DHT22;5755;48.116;11.608;2023-03-12T01:55:57;1.80;76.10
11399;DHT22;5755;48.116;11.608;2023-03-12T01:58:28;1.80;75.40
11399;DHT22;5755;48.116;11.608;2023-03-12T02:00:57;1.70;75.40
11399;DHT22;5755;48.116;11.608;2023-03-12T02:03:24;1.70;75.40
11399;DHT22;5755;48.116;11.608;2023-03-12T02:05:54;1.70;75.10
11399;DHT22;5755;48.116;11.608;2023-03-12T02:08:23;1.70;76.60
11399;DHT22;5755;48.116;11.608;2023-03-12T02:10:50;1.70;75.20
11399;DHT22;5755;48.116;11.608;2023-03-12T02:13:17;1.60;73.80
11399;DHT22;5755;48.116;11.608;2023-03-12T02:15:45;1.60;75.40
11399;DHT22;5755;48.116;11.608;2023-03-12T02:18:15;1.70;75.10
11399;DHT22;5755;48.116;11.608;2023-03-12T02:20:48;1.60;74.40
11399;DHT22;5755;48.116;11.608;2023-03-12T02:23:20;1.60;75.00
11399;DHT22;5755;48.116;11.608;2023-03-12T02:25:53;1.60;75.30
11399;DHT22;5755;48.116;11.608;2023-03-12T02:28:24;1.50;75.00
11399;DHT22;5755;48.116;11.608;2023-03-12T02:30:57;1.60;75.70
11399;DHT22;5755;48.116;11.608;2023-03-12T02:33:24;1.60;75.60
11399;DHT22;5755;48.116;11.608;2023-03-12T02:35:52;1.70;75.00
11399;DHT22;5755;48.116;11.608;2023-03-12T02:38:33;1.60;75.00
11399;DHT22;5755;48.116;11.608;2023-03-12T02:41:04;1.50;75.10
11399;DHT22;5755;48.116;11.608;2023-03-12T02:43:34;1.40;75.20
11399;DHT22;5755;48.116;11.608;2023-03-12T02:46:01;1.40;75.80
11399;DHT22;5755;48.116;11.608;2023-03-12T02:48:28;1.30;75.70
11399;DHT22;5755;48.116;11.608;2023-03-12T02:50:55;1.20;76.70
11399;DHT22;5755;48.116;11.608;2023-03-12T02:53:22;1.10;77.40
11399;DHT22;5755;48.116;11.608;2023-03-12T02:55:50;1.10;78.80
11399;DHT22;5755;48.116;11.608;2023-03-12T02:58:18;1.00;79.60
11399;DHT22;5755;48.116;11.608;2023-03-12T03:00:45;1.00;79.50
11399;DHT22;5755;48.116;11.608;2023-03-12T03:03:13;0.90;81.10
11399;DHT22;5755;48.116;11.608;2023-03-12T03:05:40;0.90;80.30
11399;DHT22;5755;48.116;11.608;2023-03-12T03:08:09;1.00;80.20
11399;DHT22;5755;48.116;11.608;2023-03-12T03:10:36;0.90;79.50
11399;DHT22;5755;48.116;11.608;2023-03-12T03:13:03;1.00;79.40
11399;DHT22;5755;48.116;11.608;2023-03-12T03:15:31;1.00;80.10
11399;DHT22;5755;48.116;11.608;2023-03-12T03:17:58;1.00;81.10
11399;DHT22;5755;48.116;11.608;2023-03-12T03:20:28;1.10;80.90
11399;DHT22;5755;48.116;11.608;2023-03-12T03:22:55;1.10;80.60
11399;DHT22;5755;48.116;11.608;2023-03-12T03:25:23;1.20;79.30
11399;DHT22;5755;48.116;11.608;2023-03-12T03:27:50;1.20;78.90
11399;DHT22;5755;48.116;11.608;2023-03-12T03:30:17;1.20;81.30
11399;DHT22;5755;48.116;11.608;2023-03-12T03:32:46;1.20;80.90
11399;DHT22;5755;48.116;11.608;2023-03-12T03:35:14;1.20;80.30
11399;DHT22;5755;48.116;11.608;2023-03-12T03:37:40;1.20;80.20
11399;DHT22;5755;48.116;11.608;2023-03-12T03:40:09;1.20;81.60
11399;DHT22;5755;48.116;11.608;2023-03-12T03:42:37;1.30;81.40
11399;DHT22;5755;48.116;11.608;2023-03-12T03:45:06;1.30;82.00
11399;DHT22;5755;48.116;11.608;2023-03-12T03:47:34;1.30;82.90
11399;DHT22;5755;48.116;11.608;2023-03-12T03:50:02;1.30;82.90
11399;DHT22;5755;48.116;11.608;2023-03-12T03:52:30;1.40;83.50
11399;DHT22;5755;48.116;11.608;2023-03-12T03:54:57;1.40;82.90
11399;DHT22;5755;48.116;11.608;2023-03-12T03:57:24;1.50;84.40
11399;DHT22;5755;48.116;11.608;2023-03-12T03:59:51;1.60;84.10
11399;DHT22;5755;48.116;11.608;2023-03-12T04:02:18;1.60;83.60
11399;DHT22;5755;48.116;11.608;2023-03-12T04:04:45;1.60;84.10
11399;DHT22;5755;48.116;11.608;2023-03-12T04:07:13;1.60;83.50
11399;DHT22;5755;48.116;11.608;2023-03-12T04:09:40;1.70;84.10
11399;DHT22;5755;48.116;11.608;2023-03-12T04:12:08;1.80;83.60
11399;DHT22;5755;48.116;11.608;2023-03-12T04:14:38;2.00;81.00
11399;DHT22;5755;48.116;11.608;2023-03-12T04:17:05;2.00;81.00
11399;DHT22;5755;48.116;11.608;2023-03-12T04:19:32;1.90;82.50
11399;DHT22;5755;48.116;11.608;2023-03-12T04:21:59;2.00;83.30
11399;DHT22;5755;48.116;11.608;2023-03-12T04:24:27;1.90;82.50
11399;DHT22;5755;48.116;11.608;2023-03-12T04:26:56;1.90;83.50
11399;DHT22;5755;48.116;11.608;2023-03-12T04:29:23;1.90;85.40
11399;DHT22;5755;48.116;11.608;2023-03-12T04:31:50;1.90;85.80
11399;DHT22;5755;48.116;11.608;2023-03-12T04:34:17;1.80;85.20
11399;DHT22;5755;48.116;11.608;2023-03-12T04:36:44;1.90;86.60
11399;DHT22;5755;48.116;11.608;2023-03-12T04:39:12;1.80;87.00
11399;DHT22;5755;48.116;11.608;2023-03-12T04:41:40;1.90;87.00
11399;DHT22;5755;48.116;11.608;2023-03-12T04:44:07;1.90;87.00
11399;DHT22;5755;48.116;11.608;2023-03-12T04:46:34;1.90;86.50
11399;DHT22;5755;48.116;11.608;2023-03-12T04:49:01;1.90;86.40
11399;DHT22;5755;48.116;11.608;2023-03-12T04:51:28;1.90;87.00
11399;DHT22;5755;48.116;11.608;2023-03-12T04:53:56;1.90;87.00
11399;DHT22;5755;48.116;11.608;2023-03-12T04:56:23;2.00;87.30
11399;DHT22;5755;48.116;11.608;2023-03-12T04:58:52;2.10;85.50
11399;DHT22;5755;48.116;11.608;2023-03-12T05:01:23;2.30;84.50
11399;DHT22;5755;48.116;11.608;2023-03-12T05:03:51;2.30;83.90
11399;DHT22;5755;48.116;11.608;2023-03-12T05:06:18;2.40;83.30
11399;DHT22;5755;48.116;11.608;2023-03-12T05:08:45;2.40;82.60
11399;DHT22;5755;48.116;11.608;2023-03-12T05:11:12;2.30;84.30
11399;DHT22;5755;48.116;11.608;2023-03-12T05:13:41;2.20;85.80
11399;DHT22;5755;48.116;11.608;2023-03-12T05:16:10;2.10;87.10
11399;DHT22;5755;48.116;11.608;2023-03-12T05:18:38;2.10;87.10
11399;DHT22;5755;48.116;11.608;2023-03-12T05:21:07;2.10;87.10
11399;DHT22;5755;48.116;11.608;2023-03-12T05:23:34;2.10;87.10
11399;DHT22;5755;48.116;11.608;2023-03-12T05:26:04;2.00;87.10
11399;DHT22;5755;48.116;11.608;2023-03-12T05:28:33;2.00;88.30
11399;DHT22;5755;48.116;11.608;2023-03-12T05:31:00;2.00;88.30
11399;DHT22;5755;48.116;11.608;2023-03-12T05:33:28;2.00;89.10
11399;DHT22;5755;48.116;11.608;2023-03-12T05:35:55;1.90;89.70
11399;DHT22;5755;48.116;11.608;2023-03-12T05:38:22;1.80;89.90
11399;DHT22;5755;48.116;11.608;2023-03-12T05:40:52;1.90;90.50
11399;DHT22;5755;48.116;11.608;2023-03-12T05:43:19;1.80;90.60
11399;DHT22;5755;48.116;11.608;2023-03-12T05:45:47;1.80;90.60
11399;DHT22;5755;48.116;11.608;2023-03-12T05:48:14;1.80;90.80
11399;DHT22;5755;48.116;11.608;2023-03-12T05:50:43;1.80;91.20
11399;DHT22;5755;48.116;11.608;2023-03-12T05:53:10;1.90;91.30
11399;DHT22;5755;48.116;11.608;2023-03-12T05:55:38;1.90;91.20
11399;DHT22;5755;48.116;11.608;2023-03-12T05:58:06;2.00;91.00
11399;DHT22;5755;48.116;11.608;2023-03-12T06:00:34;2.20;91.00
11399;DHT22;5755;48.116;11.608;2023-03-12T06:03:02;2.30;91.00
11399;DHT22;5755;48.116;11.608;2023-03-12T06:05:30;2.40;90.70
11399;DHT22;5755;48.116;11.608;2023-03-12T06:07:58;2.50;90.70
11399;DHT22;5755;48.116;11.608;2023-03-12T06:10:25;2.50;90.90
11399;DHT22;5755;48.116;11.608;2023-03-12T06:12:52;2.70;90.50
11399;DHT22;5755;48.116;11.608;2023-03-12T06:15:19;2.70;89.80
11399;DHT22;5755;48.116;11.608;2023-03-12T06:17:46;2.80;89.80
11399;DHT22;5755;48.116;11.608;2023-03-12T06:20:13;2.80;89.50
11399;DHT22;5755;48.116;11.608;2023-03-12T06:22:41;2.80;90.40
11399;DHT22;5755;48.116;11.608;2023-03-12T06:25:09;2.80;90.30
11399;DHT22;5755;48.116;11.608;2023-03-12T06:27:36;2.90;90.00
11399;DHT22;5755;48.116;11.608;2023-03-12T06:30:04;2.90;89.40
11399;DHT22;5755;48.116;11.608;2023-03-12T06:32:31;2.90;89.60
11399;DHT22;5755;48.116;11.608;2023-03-12T06:34:58;2.90;89.80
11399;DHT22;5755;48.116;11.608;2023-03-12T06:37:26;2.90;90.00
11399;DHT22;5755;48.116;11.608;2023-03-12T06:39:54;3.00;89.80
11399;DHT22;5755;48.116;11.608;2023-03-12T06:42:22;3.20;89.70
11399;DHT22;5755;48.116;11.608;2023-03-12T06:44:51;3.30;88.20
11399;DHT22;5755;48.116;11.608;2023-03-12T06:47:18;3.40;88.00
11399;DHT22;5755;48.116;11.608;2023-03-12T06:49:45;3.60;88.10
11399;DHT22;5755;48.116;11.608;2023-03-12T06:52:12;3.60;88.10
11399;DHT22;5755;48.116;11.608;2023-03-12T06:54:39;3.60;88.10
11399;DHT22;5755;48.116;11.608;2023-03-12T06:57:06;3.60;88.10
11399;DHT22;5755;48.116;11.608;2023-03-12T06:59:34;3.70;88.20
11399;DHT22;5755;48.116;11.608;2023-03-12T07:02:01;3.70;86.30
11399;DHT22;5755;48.116;11.608;2023-03-12T07:04:28;3.80;87.70
11399;DHT22;5755;48.116;11.608;2023-03-12T07:06:55;3.70;88.20
11399;DHT22;5755;48.116;11.608;2023-03-12T07:09:22;3.80;88.30
11399;DHT22;5755;48.116;11.608;2023-03-12T07:11:49;3.80;88.30
11399;DHT22;5755;48.116;11.608;2023-03-12T07:14:15;3.90;88.30
11399;DHT22;5755;48.116;11.608;2023-03-12T07:16:46;4.10;88.40
11399;DHT22;5755;48.116;11.608;2023-03-12T07:19:13;4.10;88.50
11399;DHT22;5755;48.116;11.608;2023-03-12T07:21:40;4.10;88.40
11399;DHT22;5755;48.116;11.608;2023-03-12T07:24:07;4.20;90.00
11399;DHT22;5755;48.116;11.608;2023-03-12T07:26:34;4.30;89.10
11399;DHT22;5755;48.116;11.608;2023-03-12T07:29:02;4.50;88.70
11399;DHT22;5755;48.116;11.608;2023-03-12T07:31:29;4.40;90.00
11399;DHT22;5755;48.116;11.608;2023-03-12T07:33:57;4.30;91.10
11399;DHT22;5755;48.116;11.608;2023-03-12T07:36:24;4.20;91.90
11399;DHT22;5755;48.116;11.608;2023-03-12T07:38:51;4.30;92.20
11399;DHT22;5755;48.116;11.608;2023-03-12T07:41:18;4.40;92.50
11399;DHT22;5755;48.116;11.608;2023-03-12T07:43:46;4.50;92.60
11399;DHT22;5755;48.116;11.608;2023-03-12T07:46:13;4.60;93.00
11399;DHT22;5755;48.116;11.608;2023-03-12T07:48:41;4.90;91.90
11399;DHT22;5755;48.116;11.608;2023-03-12T07:51:09;4.90;91.80
11399;DHT22;5755;48.116;11.608;2023-03-12T07:53:35;5.10;91.50
11399;DHT22;5755;48.116;11.608;2023-03-12T07:56:02;5.20;92.00
11399;DHT22;5755;48.116;11.608;2023-03-12T07:58:30;5.40;91.40
11399;DHT22;5755;48.116;11.608;2023-03-12T08:00:57;5.70;89.40
11399;DHT22;5755;48.116;11.608;2023-03-12T08:03:23;5.60;91.10
11399;DHT22;5755;48.116;11.608;2023-03-12T08:05:58;5.50;91.20
11399;DHT22;5755;48.116;11.608;2023-03-12T08:08:28;5.50;91.40
11399;DHT22;5755;48.116;11.608;2023-03-12T08:10:55;5.50;91.10
11399;DHT22;5755;48.116;11.608;2023-03-12T08:13:23;5.50;91.30
11399;DHT22;5755;48.116;11.608;2023-03-12T08:15:50;5.40;91.10
11399;DHT22;5755;48.116;11.608;2023-03-12T08:18:19;5.30;91.30
11399;DHT22;5755;48.116;11.608;2023-03-12T08:20:49;5.40;91.30
11399;DHT22;5755;48.116;11.608;2023-03-12T08:23:16;5.40;91.20
11399;DHT22;5755;48.116;11.608;2023-03-12T08:25:46;5.50;90.20
11399;DHT22;5755;48.116;11.608;2023-03-12T08:28:13;5.40;89.20
11399;DHT22;5755;48.116;11.608;2023-03-12T08:30:44;5.30;90.70
11399;DHT22;5755;48.116;11.608;2023-03-12T08:33:11;5.30;90.50
11399;DHT22;5755;48.116;11.608;2023-03-12T08:35:38;5.30;90.70
11399;DHT22;5755;48.116;11.608;2023-03-12T08:38:05;5.50;90.90
11399;DHT22;5755;48.116;11.608;2023-03-12T08:40:32;5.50;90.70
11399;DHT22;5755;48.116;11.608;2023-03-12T08:43:02;5.40;90.90
11399;DHT22;5755;48.116;11.608;2023-03-12T08:45:35;5.30;90.90
11399;DHT22;5755;48.116;11.608;2023-03-12T08:48:03;5.20;91.60
11399;DHT22;5755;48.116;11.608;2023-03-12T08:50:30;5.30;92.10
11399;DHT22;5755;48.116;11.608;2023-03-12T08:52:57;5.50;90.80
11399;DHT22;5755;48.116;11.608;2023-03-12T08:55:25;5.50;90.90
11399;DHT22;5755;48.116;11.608;2023-03-12T08:57:54;5.40;91.60
11399;DHT22;5755;48.116;11.608;2023-03-12T09:00:23;5.60;91.80
11399;DHT22;5755;48.116;11.608;2023-03-12T09:02:50;5.70;92.30
11399;DHT22;5755;48.116;11.608;2023-03-12T09:05:18;5.70;92.80
11399;DHT22;5755;48.116;11.608;2023-03-12T09:07:49;5.80;92.90
11399;DHT22;5755;48.116;11.608;2023-03-12T09:10:16;5.70;93.70
11399;DHT22;5755;48.116;11.608;2023-03-12T09:12:45;5.60;94.50
11399;DHT22;5755;48.116;11.608;2023-03-12T09:15:12;5.60;95.20
11399;DHT22;5755;48.116;11.608;2023-03-12T09:17:43;5.60;95.30
11399;DHT22;5755;48.116;11.608;2023-03-12T09:20:11;6.00;94.60
11399;DHT22;5755;48.116;11.608;2023-03-12T09:25:17;6.30;93.70
11399;DHT22;5755;48.116;11.608;2023-03-12T09:27:50;6.20;93.50
11399;DHT22;5755;48.116;11.608;2023-03-12T09:30:19;6.20;94.40
11399;DHT22;5755;48.116;11.608;2023-03-12T09:32:47;6.10;93.90
11399;DHT22;5755;48.116;11.608;2023-03-12T09:35:15;6.20;93.00
11399;DHT22;5755;48.116;11.608;2023-03-12T09:37:42;6.00;94.10
11399;DHT22;5755;48.116;11.608;2023-03-12T09:40:18;6.00;94.10
11399;DHT22;5755;48.116;11.608;2023-03-12T09:42:56;5.80;94.00
11399;DHT22;5755;48.116;11.608;2023-03-12T09:45:24;5.70;95.20
11399;DHT22;5755;48.116;11.608;2023-03-12T09:47:57;5.60;95.20
11399;DHT22;5755;48.116;11.608;2023-03-12T09:50:27;5.70;95.20
11399;DHT22;5755;48.116;11.608;2023-03-12T09:52:58;5.70;95.20
11399;DHT22;5755;48.116;11.608;2023-03-12T09:55:27;5.40;94.80
11399;DHT22;5755;48.116;11.608;2023-03-12T09:57:58;5.20;95.10
11399;DHT22;5755;48.116;11.608;2023-03-12T10:00:29;5.20;96.20
11399;DHT22;5755;48.116;11.608;2023-03-12T10:03:24;5.30;95.10
11399;DHT22;5755;48.116;11.608;2023-03-12T10:06:01;5.40;95.70
11399;DHT22;5755;48.116;11.608;2023-03-12T10:08:38;5.40;95.20
11399;DHT22;5755;48.116;11.608;2023-03-12T10:11:15;5.30;94.80
11399;DHT22;5755;48.116;11.608;2023-03-12T10:13:53;5.20;95.10
11399;DHT22;5755;48.116;11.608;2023-03-12T10:16:41;5.30;95.40
11399;DHT22;5755;48.116;11.608;2023-03-12T10:19:24;5.40;95.60
11399;DHT22;5755;48.116;11.608;2023-03-12T10:22:00;5.20;95.60
11399;DHT22;5755;48.116;11.608;2023-03-12T10:24:40;5.20;95.10
11399;DHT22;5755;48.116;11.608;2023-03-12T10:27:12;5.30;95.40
11399;DHT22;5755;48.116;11.608;2023-03-12T10:29:41;5.40;95.70
11399;DHT22;5755;48.116;11.608;2023-03-12T10:32:14;5.60;95.20
11399;DHT22;5755;48.116;11.608;2023-03-12T10:34:46;5.70;96.10
11399;DHT22;5755;48.116;11.608;2023-03-12T10:37:17;5.70;95.40
11399;DHT22;5755;48.116;11.608;2023-03-12T10:39:46;5.70;95.20
11399;DHT22;5755;48.116;11.608;2023-03-12T10:42:17;5.40;95.50
11399;DHT22;5755;48.116;11.608;2023-03-12T10:44:45;5.30;95.90
11399;DHT22;5755;48.116;11.608;2023-03-12T10:47:24;5.10;96.60
11399;DHT22;5755;48.116;11.608;2023-03-12T10:50:11;5.00;96.60
11399;DHT22;5755;48.116;11.608;2023-03-12T10:52:38;4.90;96.80
11399;DHT22;5755;48.116;11.608;2023-03-12T10:55:12;4.90;97.20
11399;DHT22;5755;48.116;11.608;2023-03-12T10:57:40;5.00;97.40
11399;DHT22;5755;48.116;11.608;2023-03-12T11:00:08;5.10;97.40
11399;DHT22;5755;48.116;11.608;2023-03-12T11:02:41;5.20;98.20
11399;DHT22;5755;48.116;11.608;2023-03-12T11:05:20;5.30;97.80
11399;DHT22;5755;48.116;11.608;2023-03-12T11:07:48;5.40;97.80
11399;DHT22;5755;48.116;11.608;2023-03-12T11:10:19;5.50;97.30
11399;DHT22;5755;48.116;11.608;2023-03-12T11:13:00;5.40;97.10
11399;DHT22;5755;48.116;11.608;2023-03-12T11:15:29;5.50;97.00
11399;DHT22;5755;48.116;11.608;2023-03-12T11:18:19;5.50;97.40
11399;DHT22;5755;48.116;11.608;2023-03-12T11:20:49;5.60;97.40
11399;DHT22;5755;48.116;11.608;2023-03-12T11:23:20;5.70;97.40
11399;DHT22;5755;48.116;11.608;2023-03-12T11:25:51;5.90;96.80
11399;DHT22;5755;48.116;11.608;2023-03-12T11:28:22;5.90;96.70
11399;DHT22;5755;48.116;11.608;2023-03-12T11:30:51;6.20;96.80
11399;DHT22;5755;48.116;11.608;2023-03-12T11:33:18;6.50;95.60
11399;DHT22;5755;48.116;11.608;2023-03-12T11:35:56;6.60;96.20
11399;DHT22;5755;48.116;11.608;2023-03-12T11:38:32;6.70;95.40
11399;DHT22;5755;48.116;11.608;2023-03-12T11:41:08;7.00;95.50
11399;DHT22;5755;48.116;11.608;2023-03-12T11:43:54;7.00;94.60
11399;DHT22;5755;48.116;11.608;2023-03-12T11:46:33;6.70;95.40
11399;DHT22;5755;48.116;11.608;2023-03-12T11:49:12;6.70;96.90
11399;DHT22;5755;48.116;11.608;2023-03-12T11:51:48;6.80;96.60
11399;DHT22;5755;48.116;11.608;2023-03-12T11:54:31;7.00;96.60
11399;DHT22;5755;48.116;11.608;2023-03-12T11:57:10;6.90;96.70
11399;DHT22;5755;48.116;11.608;2023-03-12T11:59:58;6.90;96.10
11399;DHT22;5755;48.116;11.608;2023-03-12T12:02:53;6.80;96.20
11399;DHT22;5755;48.116;11.608;2023-03-12T12:05:31;6.70;97.10
11399;DHT22;5755;48.116;11.608;2023-03-12T12:08:13;6.80;97.70
11399;DHT22;5755;48.116;11.608;2023-03-12T12:10:50;6.80;98.10
11399;DHT22;5755;48.116;11.608;2023-03-12T12:13:29;6.80;97.80
11399;DHT22;5755;48.116;11.608;2023-03-12T12:16:04;6.90;97.30
11399;DHT22;5755;48.116;11.608;2023-03-12T12:18:47;7.00;97.10
11399;DHT22;5755;48.116;11.608;2023-03-12T12:21:32;7.20;96.80
11399;DHT22;5755;48.116;11.608;2023-03-12T12:24:11;7.20;97.40
11399;DHT22;5755;48.116;11.608;2023-03-12T12:26:45;7.20;97.70
11399;DHT22;5755;48.116;11.608;2023-03-12T12:29:31;7.10;98.10
11399;DHT22;5755;48.116;11.608;2023-03-12T12:32:03;7.10;98.50
11399;DHT22;5755;48.116;11.608;2023-03-12T12:34:50;7.20;98.10
11399;DHT22;5755;48.116;11.608;2023-03-12T12:37:30;7.20;99.00
11399;DHT22;5755;48.116;11.608;2023-03-12T12:40:09;7.20;99.30
11399;DHT22;5755;48.116;11.608;2023-03-12T12:42:50;7.50;99.30
11399;DHT22;5755;48.116;11.608;2023-03-12T12:45:20;7.50;98.70
11399;DHT22;5755;48.116;11.608;2023-03-12T12:47:51;7.50;99.10
11399;DHT22;5755;48.116;11.608;2023-03-12T12:50:35;7.60;99.40
11399;DHT22;5755;48.116;11.608;2023-03-12T12:53:13;7.80;99.20
11399;DHT22;5755;48.116;11.608;2023-03-12T12:55:47;7.80;99.20
11399;DHT22;5755;48.116;11.608;2023-03-12T12:58:21;7.80;99.50
11399;DHT22;5755;48.116;11.608;2023-03-12T13:00:50;7.80;99.20
11399;DHT22;5755;48.116;11.608;2023-03-12T13:03:21;7.80;99.90
11399;DHT22;5755;48.116;11.608;2023-03-12T13:06:04;8.00;99.20
11399;DHT22;5755;48.116;11.608;2023-03-12T13:09:11;8.00;99.30
11399;DHT22;5755;48.116;11.608;2023-03-12T13:11:43;8.00;99.40
11399;DHT22;5755;48.116;11.608;2023-03-12T13:14:23;8.00;99.50
11399;DHT22;5755;48.116;11.608;2023-03-12T13:17:18;8.10;99.60
11399;DHT22;5755;48.116;11.608;2023-03-12T13:20:10;8.10;99.90
11399;DHT22;5755;48.116;11.608;2023-03-12T13:25:54;8.60;99.60
11399;DHT22;5755;48.116;11.608;2023-03-12T13:28:56;8.70;99.50
11399;DHT22;5755;48.116;11.608;2023-03-12T13:31:47;8.90;99.00
11399;DHT22;5755;48.116;11.608;2023-03-12T13:34:44;9.00;98.50
11399;DHT22;5755;48.116;11.608;2023-03-12T13:38:06;9.20;98.60
11399;DHT22;5755;48.116;11.608;2023-03-12T13:40:57;9.10;98.50
11399;DHT22;5755;48.116;11.608;2023-03-12T13:43:50;9.00;98.40
11399;DHT22;5755;48.116;11.608;2023-03-12T13:46:41;9.10;98.60
11399;DHT22;5755;48.116;11.608;2023-03-12T13:49:24;9.30;98.60
11399;DHT22;5755;48.116;11.608;2023-03-12T13:52:00;9.40;98.30
11399;DHT22;5755;48.116;11.608;2023-03-12T13:54:34;9.50;97.80
11399;DHT22;5755;48.116;11.608;2023-03-12T13:57:34;9.60;97.90
11399;DHT22;5755;48.116;11.608;2023-03-12T14:00:14;9.80;97.40
11399;DHT22;5755;48.116;11.608;2023-03-12T14:02:48;9.80;97.20
11399;DHT22;5755;48.116;11.608;2023-03-12T14:05:17;10.00;96.20
11399;DHT22;5755;48.116;11.608;2023-03-12T14:08:10;9.90;96.10
11399;DHT22;5755;48.116;11.608;2023-03-12T14:10:46;9.90;96.40
11399;DHT22;5755;48.116;11.608;2023-03-12T14:13:28;9.80;96.10
11399;DHT22;5755;48.116;11.608;2023-03-12T14:16:01;9.80;96.60
11399;DHT22;5755;48.116;11.608;2023-03-12T14:19:01;9.70;97.10
11399;DHT22;5755;48.116;11.608;2023-03-12T14:21:44;9.80;97.40
11399;DHT22;5755;48.116;11.608;2023-03-12T14:24:20;10.00;96.30
11399;DHT22;5755;48.116;11.608;2023-03-12T14:26:49;10.10;96.50
11399;DHT22;5755;48.116;11.608;2023-03-12T14:29:20;10.30;96.00
11399;DHT22;5755;48.116;11.608;2023-03-12T14:31:48;10.50;95.80
11399;DHT22;5755;48.116;11.608;2023-03-12T14:34:18;10.80;95.60
11399;DHT22;5755;48.116;11.608;2023-03-12T14:36:51;10.90;94.20
11399;DHT22;5755;48.116;11.608;2023-03-12T14:39:27;10.90;93.90
11399;DHT22;5755;48.116;11.608;2023-03-12T14:41:58;10.90;93.60
11399;DHT22;5755;48.116;11.608;2023-03-12T14:44:28;10.90;93.40
11399;DHT22;5755;48.116;11.608;2023-03-12T14:46:58;11.00;93.30
11399;DHT22;5755;48.116;11.608;2023-03-12T14:49:45;10.90;92.70
11399;DHT22;5755;48.116;11.608;2023-03-12T14:52:40;10.80;93.60
11399;DHT22;5755;48.116;11.608;2023-03-12T14:55:13;10.70;93.30
11399;DHT22;5755;48.116;11.608;2023-03-12T14:57:40;10.60;93.50
11399;DHT22;5755;48.116;11.608;2023-03-12T15:00:23;10.40;93.30
11399;DHT22;5755;48.116;11.608;2023-03-12T15:02:52;10.40;93.40
11399;DHT22;5755;48.116;11.608;2023-03-12T15:05:44;10.20;93.40
11399;DHT22;5755;48.116;11.608;2023-03-12T15:08:38;10.10;93.60
11399;DHT22;5755;48.116;11.608;2023-03-12T15:11:12;10.00;94.00
11399;DHT22;5755;48.116;11.608;2023-03-12T15:13:41;10.00;94.20
11399;DHT22;5755;48.116;11.608;2023-03-12T15:16:09;10.00;93.90
11399;DHT22;5755;48.116;11.608;2023-03-12T15:18:36;10.00;94.00
11399;DHT22;5755;48.116;11.608;2023-03-12T15:24:26;10.20;94.10
11399;DHT22;5755;48.116;11.608;2023-03-12T15:27:29;10.30;93.40
11399;DHT22;5755;48.116;11.608;2023-03-12T15:30:23;10.20;93.50
11399;DHT22;5755;48.116;11.608;2023-03-12T15:33:05;10.10;93.80
11399;DHT22;5755;48.116;11.608;2023-03-12T15:35:33;10.10;93.90
11399;DHT22;5755;48.116;11.608;2023-03-12T15:38:03;10.00;94.00
11399;DHT22;5755;48.116;11.608;2023-03-12T15:41:05;10.00;94.30
11399;DHT22;5755;48.116;11.608;2023-03-12T15:43:38;9.90;94.60
11399;DHT22;5755;48.116;11.608;2023-03-12T15:46:29;9.90;94.50
11399;DHT22;5755;48.116;11.608;2023-03-12T15:48:59;10.00;93.90
11399;DHT22;5755;48.116;11.608;2023-03-12T15:51:29;10.00;93.60
11399;DHT22;5755;48.116;11.608;2023-03-12T15:54:04;9.90;94.20
11399;DHT22;5755;48.116;11.608;2023-03-12T15:56:48;9.80;94.50
11399;DHT22;5755;48.116;11.608;2023-03-12T15:59:22;9.70;94.80
11399;DHT22;5755;48.116;11.608;2023-03-12T16:01:51;9.70;94.70
11399;DHT22;5755;48.116;11.608;2023-03-12T16:04:21;9.80;94.60
11399;DHT22;5755;48.116;11.608;2023-03-12T16:06:50;9.70;94.70
11399;DHT22;5755;48.116;11.608;2023-03-12T16:09:22;9.70;94.80
11399;DHT22;5755;48.116;11.608;2023-03-12T16:12:05;9.70;95.00
11399;DHT22;5755;48.116;11.608;2023-03-12T16:14:33;9.60;95.00
11399;DHT22;5755;48.116;11.608;2023-03-12T16:17:05;9.60;95.00
11399;DHT22;5755;48.116;11.608;2023-03-12T16:19:43;9.60;95.10
11399;DHT22;5755;48.116;11.608;2023-03-12T16:22:11;9.60;95.30
11399;DHT22;5755;48.116;11.608;2023-03-12T16:24:40;9.50;95.90